Time;durP1;ratioP1;P1;durP2;ratioP2;P2;SDS_P1;SDS_P2;PMS_P1;PMS_P2;Temp;Humidity;BMP_temperature;BMP_pressure;BME280_temperature;BME280_humidity;BME280_pressure;Samples;Min_cycle;Max_cycle;Signal;HPM_P1;HPM_P2
2021/11/04 00:01:17;;;;;;;45.77;18.30;;;;;;;10.65;100.00;100971.06;31600429;28;20806;-76
2021/11/04 00:16:24;;;;;;;104.63;17.37;;;;;;;10.59;100.00;100990.53;31597428;28;20496;-75
2021/11/04 00:31:26;;;;;;;65.90;15.77;;;;;;;10.48;100.00;101016.16;31579233;28;20040;-74
2021/11/04 00:46:31;;;;;;;46.30;17.67;;;;;;;10.50;100.00;101025.47;31595928;28;20036;-74
2021/11/04 01:01:33;;;;;;;61.77;17.47;;;;;;;10.58;100.00;101035.13;31585371;28;20520;-75
2021/11/04 01:16:38;;;;;;;88.27;16.30;;;;;;;10.42;100.00;101032.09;31590627;28;20048;-76
2021/11/04 01:31:40;;;;;;;41.47;14.90;;;;;;;10.30;100.00;101024.41;31597996;28;20058;-74
2021/11/04 01:46:43;;;;;;;44.03;16.60;;;;;;;10.27;100.00;101049.59;31593948;28;20054;-74
2021/11/04 02:01:49;;;;;;;115.17;17.83;;;;;;;10.03;100.00;101061.25;31565668;28;20414;-75
2021/11/04 02:16:56;;;;;;;;;;;;;;;9.86;100.00;101074.47;31574984;28;20040;-75
2021/11/04 02:32:01;;;;;;;69.20;15.10;;;;;;;9.73;100.00;101103.13;31614100;28;19932;-74
2021/11/04 02:47:03;;;;;;;56.47;13.97;;;;;;;9.60;100.00;101128.31;31615537;28;20044;-75
2021/11/04 03:02:08;;;;;;;57.97;15.30;;;;;;;9.73;100.00;101130.25;31609606;28;20303;-75
2021/11/04 03:17:10;;;;;;;67.27;14.63;;;;;;;9.68;100.00;101122.53;31610392;28;20048;-73
2021/11/04 03:32:17;;;;;;;78.47;16.30;;;;;;;9.63;100.00;101130.25;31602796;28;20122;-75
2021/11/04 03:47:21;;;;;;;84.60;15.90;;;;;;;9.56;100.00;101166.25;31602638;28;20544;-75
2021/11/04 04:02:23;;;;;;;82.43;14.37;;;;;;;9.62;100.00;101183.72;31606012;28;20059;-74
2021/11/04 04:17:25;;;;;;;40.00;14.57;;;;;;;9.72;100.00;101182.94;31586092;28;20048;-74
2021/11/04 04:32:27;;;;;;;59.67;16.13;;;;;;;9.84;100.00;101190.69;31607540;28;20371;-74
2021/11/04 04:47:29;;;;;;;52.20;17.30;;;;;;;9.82;100.00;101203.88;31596948;28;20040;-75
2021/11/04 05:02:31;;;;;;;68.17;16.23;;;;;;;9.83;100.00;101246.09;31597388;28;20778;-75
2021/11/04 05:17:34;;;;;;;79.60;18.73;;;;;;;9.87;100.00;101259.66;31597709;28;20070;-74
2021/11/04 05:32:36;;;;;;;62.47;17.63;;;;;;;9.93;100.00;101286.00;31605144;28;20102;-74
2021/11/04 05:47:38;;;;;;;57.97;15.97;;;;;;;10.13;100.00;101286.44;31596259;28;20051;-75
2021/11/04 06:02:40;;;;;;;40.07;14.77;;;;;;;10.10;100.00;101294.59;31600455;28;20141;-76
2021/11/04 06:17:42;;;;;;;42.67;13.23;;;;;;;10.04;100.00;101302.31;31595705;28;20146;-78
2021/11/04 06:32:44;;;;;;;46.60;15.10;;;;;;;10.16;100.00;101314.72;31572002;28;20160;-76
2021/11/04 06:47:50;;;;;;;45.60;13.73;;;;;;;10.19;100.00;101314.00;31584202;28;20048;-74
2021/11/04 07:02:52;;;;;;;30.63;12.20;;;;;;;10.16;100.00;101331.78;31560085;28;20526;-75
2021/11/04 07:17:54;;;;;;;37.10;11.73;;;;;;;10.13;100.00;101315.53;31598290;28;20081;-75
2021/11/04 07:33:00;;;;;;;40.73;13.03;;;;;;;10.07;100.00;101319.75;31596496;28;20053;-75
2021/11/04 07:48:02;;;;;;;60.03;13.27;;;;;;;10.12;100.00;101309.31;31598907;28;20052;-75
2021/11/04 08:03:10;;;;;;;126.23;15.13;;;;;;;10.06;100.00;101293.78;31606056;28;20056;-78
2021/11/04 08:18:13;;;;;;;67.80;13.83;;;;;;;10.18;100.00;101317.84;31552114;28;20041;-77
2021/11/04 08:33:19;;;;;;;38.97;13.87;;;;;;;10.13;100.00;101342.66;31607150;28;20056;-77
2021/11/04 08:48:24;;;;;;;50.97;14.50;;;;;;;10.33;100.00;101357.44;31596660;28;20054;-78
2021/11/04 09:03:27;;;;;;;38.53;14.00;;;;;;;10.34;100.00;101352.78;31549202;28;20056;-77
2021/11/04 09:18:30;;;;;;;43.30;15.33;;;;;;;10.23;100.00;101353.53;31588847;28;20074;-78
2021/11/04 09:33:31;;;;;;;55.13;17.37;;;;;;;10.39;100.00;101355.91;31573813;28;20052;-77
2021/11/04 09:48:37;;;;;;;49.43;17.07;;;;;;;10.56;100.00;101322.56;31591731;28;20540;-77
2021/11/04 10:03:38;;;;;;;57.33;18.00;;;;;;;10.79;100.00;101318.66;31559837;28;20056;-77
2021/11/04 10:18:50;;;;;;;59.23;24.07;;;;;;;11.02;100.00;101310.84;31592194;28;20075;-78
2021/11/04 10:34:34;;;;;;;56.87;20.37;;;;;;;11.03;100.00;101334.16;31581943;28;20105;-77
2021/11/04 10:49:46;;;;;;;64.43;27.90;;;;;;;11.16;100.00;101327.13;31619888;28;20068;-77
2021/11/04 11:04:48;;;;;;;51.77;23.43;;;;;;;11.48;100.00;101320.81;31619674;28;20066;-77
2021/11/04 11:19:50;;;;;;;43.20;18.70;;;;;;;11.74;100.00;101308.66;31607733;28;20056;-78
2021/11/04 11:35:17;;;;;;;43.80;18.60;;;;;;;11.97;100.00;101313.59;31603609;28;20056;-78
2021/11/04 11:50:22;;;;;;;37.30;14.53;;;;;;;11.79;100.00;101303.59;31582022;28;20043;-76
2021/11/04 12:05:32;;;;;;;39.57;16.47;;;;;;;11.50;100.00;101323.91;31590579;28;20516;-77
2021/11/04 12:20:34;;;;;;;38.20;17.70;;;;;;;11.36;100.00;101300.25;31572960;28;20370;-79
2021/11/04 12:35:48;;;;;;;42.07;15.60;;;;;;;11.39;100.00;101306.84;31575189;28;20048;-77
2021/11/04 12:50:57;;;;;;;34.77;14.70;;;;;;;11.42;100.00;101306.06;31606022;28;20086;-79
2021/11/04 13:06:00;;;;;;;40.77;17.17;;;;;;;11.35;100.00;101290.53;31595523;28;20048;-78
2021/11/04 13:21:03;;;;;;;38.50;17.57;;;;;;;11.34;100.00;101299.88;31609629;28;20048;-78
2021/11/04 13:36:07;;;;;;;40.63;18.60;;;;;;;11.30;100.00;101303.78;31582860;28;20051;-77
2021/11/04 13:51:34;;;;;;;39.60;18.37;;;;;;;11.30;100.00;101303.78;31583685;28;20135;-77
2021/11/04 14:06:44;;;;;;;41.87;17.83;;;;;;;11.26;100.00;101293.69;31559704;28;20052;-78
2021/11/04 14:21:49;;;;;;;49.03;20.37;;;;;;;11.27;100.00;101289.03;31596250;28;20040;-79
2021/11/04 14:36:54;;;;;;;43.73;18.70;;;;;;;11.33;100.00;101281.25;31621134;28;20050;-79
2021/11/04 14:51:56;;;;;;;50.70;19.67;;;;;;;11.43;100.00;101292.06;31623394;28;20140;-81
2021/11/04 15:06:58;;;;;;;43.37;19.30;;;;;;;11.49;100.00;101284.28;31627742;28;20469;-80
2021/11/04 15:22:04;;;;;;;52.90;20.60;;;;;;;11.48;100.00;101282.75;31615667;28;20059;-78
2021/11/04 15:37:06;;;;;;;49.17;20.83;;;;;;;11.53;100.00;101263.28;31604641;28;20138;-79
2021/11/04 15:52:11;;;;;;;46.30;19.87;;;;;;;11.60;100.00;101265.97;31596138;28;20056;-80
2021/11/04 16:07:13;;;;;;;46.63;21.73;;;;;;;11.71;100.00;101269.41;31615575;28;20048;-79
2021/11/04 16:22:25;;;;;;;46.77;22.07;;;;;;;11.71;100.00;101283.00;31603586;28;20452;-78
2021/11/04 16:37:46;;;;;;;50.03;20.87;;;;;;;11.68;100.00;101291.19;31614435;28;20071;-80
2021/11/04 16:52:48;;;;;;;47.60;21.33;;;;;;;11.70;100.00;101284.19;31627174;28;20107;-79
2021/11/04 17:07:54;;;;;;;;;;;;;;;11.64;100.00;101291.19;31613088;28;20070;-79
2021/11/04 17:22:58;;;;;;;46.20;20.23;;;;;;;11.66;100.00;101298.97;31581071;28;19946;-81
2021/11/04 17:38:01;;;;;;;48.47;20.37;;;;;;;11.78;100.00;101304.78;31609664;28;20048;-80
2021/11/04 17:53:04;;;;;;;46.73;21.80;;;;;;;11.77;100.00;101316.81;31600999;28;20140;-79
2021/11/04 18:08:06;;;;;;;46.90;22.70;;;;;;;11.83;100.00;101320.66;31582579;28;20143;-80
2021/11/04 18:23:08;;;;;;;53.67;22.80;;;;;;;11.83;100.00;101306.28;31606521;28;20061;-80
2021/11/04 18:38:11;;;;;;;56.67;23.07;;;;;;;11.91;100.00;101311.28;31568368;28;20143;-81
2021/11/04 18:53:13;;;;;;;55.57;21.63;;;;;;;11.91;100.00;101324.91;31599368;28;20082;-80
2021/11/04 19:08:18;;;;;;;54.07;18.83;;;;;;;11.71;100.00;101334.69;31598421;28;20082;-82
2021/11/04 19:23:20;;;;;;;70.43;20.50;;;;;;;11.56;100.00;101319.63;31634145;28;20064;-81
2021/11/04 19:38:22;;;;;;;90.70;15.40;;;;;;;11.52;100.00;101321.56;31592055;28;20139;-79
2021/11/04 19:53:24;;;;;;;168.47;20.07;;;;;;;11.51;100.00;101318.06;31583723;28;20052;-83
2021/11/04 20:08:26;;;;;;;164.33;22.67;;;;;;;11.54;100.00;101314.56;31593955;28;20082;-80
2021/11/04 20:23:28;;;;;;;193.07;21.07;;;;;;;11.59;100.00;101299.75;31623019;28;20384;-83
2021/11/04 20:38:30;;;;;;;166.63;17.77;;;;;;;11.65;100.00;101281.09;31592126;28;20048;-77
2021/11/04 20:53:32;;;;;;;172.17;21.10;;;;;;;11.72;100.00;101283.78;31602369;28;20469;-79
2021/11/04 21:08:36;;;;;;;229.07;21.57;;;;;;;11.82;100.00;101288.41;31602987;28;20473;-79
2021/11/04 21:23:43;;;;;;;137.43;20.60;;;;;;;11.89;100.00;101302.75;31575640;28;20047;-79
2021/11/04 21:38:46;;;;;;;120.13;19.73;;;;;;;11.98;100.00;101298.81;31575567;28;20052;-79
2021/11/04 21:53:51;;;;;;;86.83;17.77;;;;;;;12.06;100.00;101290.19;31576680;28;20056;-78
2021/11/04 22:08:56;;;;;;;66.18;19.45;;;;;;;12.18;100.00;101291.69;31562138;28;20063;-78
2021/11/04 22:23:59;;;;;;;61.47;19.53;;;;;;;12.27;100.00;101294.72;31571524;28;20085;-77
2021/11/04 22:39:02;;;;;;;56.37;19.40;;;;;;;12.35;100.00;101277.16;31576976;28;20048;-78
2021/11/04 22:54:04;;;;;;;69.87;20.87;;;;;;;12.32;100.00;101269.00;31595246;28;20439;-78
2021/11/04 23:09:06;;;;;;;63.23;20.23;;;;;;;12.30;100.00;101250.34;31603952;28;20047;-77
2021/11/04 23:24:08;;;;;;;58.90;19.10;;;;;;;12.35;100.00;101266.25;31580989;28;20048;-77
2021/11/04 23:39:10;;;;;;;65.67;20.07;;;;;;;12.19;100.00;101282.34;31595601;28;20417;-78
2021/11/04 23:54:15;;;;;;;73.53;19.57;;;;;;;12.15;100.00;101276.16;31596927;28;20060;-77
